• Join FlightAware (Why Join?)
  • Login
  • US Flag 
02:40AM EST


 

Airport Tracker/Info


-or-


 

Live Flight TrackerFlight Track Log ✈ FDX1185 ✈ 27-Apr-2012 ✈ KAFW - KTUL

Flight Track Log - Related Links

Times and Time Zones

All times are in EDT time to prevent confusion due to time zone crossing. See the FDX1185 flight status page for this flight to view local times or setup timezone preferences in your user account.

Time Position Orientation Groundspeed Altitude Reporting Facility
EDT Latitude Longitude Course Direction KTS MPH feet Rate Location/Type
05:03AM 32.9644 -97.3192 178° South 154 177 2,100  Level FAA TRACON SMA TRACON (SMA)
05:04AM 32.9383 -97.3181 164° South 147 169 2,700 1,320 Climbing FAA TRACON SMA TRACON (SMA)
05:04AM 32.9067 -97.3075 92° East 193 222 3,900 1,920 Climbing FAA TRACON SMA TRACON (SMA)
05:05AM 32.9053 -97.2522 26° Northeast 280 322 5,300 2,160 Climbing FAA TRACON SMA TRACON (SMA)
05:06AM 32.9536 -97.2244 16° North 322 371 6,800 2,700 Climbing FAA TRACON SMA TRACON (SMA)
05:06AM 33.0106 -97.2050 15° North 307 353 8,900 2,520 Climbing FAA TRACON SMA TRACON (SMA)
05:07AM 33.0636 -97.1875 16° North 312 359 10,200 1,200 Climbing FAA TRACON SMA TRACON (SMA)
05:08AM 33.1319 -97.1636 20° North 382 440 10,500 900 Climbing FAA TRACON SMA TRACON (SMA)
05:08AM 33.2114 -97.1292 19° North 432 497 11,400 1,920 Climbing FAA TRACON SMA TRACON (SMA)
05:09AM 33.2911 -97.0961 20° North 444 511 13,100 2,280 Climbing FAA TRACON SMA TRACON (SMA)
05:10AM 33.3622 -97.0650 22° Northeast 445 512 14,500 2,160 Climbing FAA TRACON SMA TRACON (SMA)
05:10AM 33.4433 -97.0250 20° North 453 521 16,000 2,280 Climbing FAA TRACON SMA TRACON (SMA)
05:11AM 33.5178 -96.9933 17° North 460 529 17,600 2,400 Climbing FAA TRACON SMA TRACON (SMA)
05:12AM 33.6031 -96.9614 18° North 467 537 19,200 2,700 Climbing FAA TRACON SMA TRACON (SMA)
05:12AM 33.6892 -96.9281 19° North 469 540 21,200 2,040 Climbing FAA TRACON SMA TRACON (SMA)
05:13AM 33.7669 -96.8967 17° North 478 550 21,900 1,560 Climbing FAA TRACON SMA TRACON (SMA)
05:14AM 33.8572 -96.8631 22° Northeast 491 565 23,300 1,800 Climbing FAA TRACON SMA TRACON (SMA)
05:15AM 34.0278 -96.7794 18° North 489 563 25,600 1,500 Climbing Fort Worth Center
05:16AM 34.1464 -96.7333 15° North 489 563 26,900 660 Climbing Fort Worth Center
05:17AM 34.2861 -96.6894 17° North 495 570 27,000  Climbing Fort Worth Center
05:18AM 34.4233 -96.6381 20° North 506 582 27,000  Level Fort Worth Center
05:19AM 34.5628 -96.5764 16° North 517 595 27,000  Level Fort Worth Center
05:20AM 34.7169 -96.5217 14° North 517 595 27,000  Level Fort Worth Center
05:21AM 34.8564 -96.4797 18° North 517 595 27,000  Level Fort Worth Center
05:22AM 34.9978 -96.4225 21° North 512 589 27,000 -1,920 Level Fort Worth Center
05:23AM 35.1286 -96.3625 20° North 512 589 23,200  Descending Fort Worth Center
05:24AM 35.2553 -96.3075 22° Northeast 496 571 27,000 -3,660 Climbing Fort Worth Center
05:26AM 35.5189 -96.1775 14° North 433 498 11,200 -4,980 Descending Kansas City Center
05:27AM 35.6197 -96.1464 22° Northeast 362 417 10,600 -900 Descending Kansas City Center
05:28AM 35.7036 -96.1047 22° Northeast 319 367 9,400 -1,440 Descending Kansas City Center
05:29AM 35.7814 -96.0653 17° North 313 360 7,700 -1,500 Descending Kansas City Center
05:30AM 35.8653 -96.0336 20° North 299 344 6,400 -1,380 Descending Kansas City Center
05:31AM 35.9428 -95.9992 23° Northeast 284 327 5,000 -1,320 Descending Kansas City Center
05:32AM 36.0142 -95.9619 36° Northeast 279 321 3,800 -1,140 Descending Kansas City Center
05:33AM 36.0692 -95.9117 19° North 246 283 2,800 -960 Descending Kansas City Center
05:34AM 36.1214 -95.8894 North 210 242 1,900 -900 Descending Kansas City Center
05:35AM 36.1675 -95.8878 North 153 176 1,000 -900 Descending Kansas City Center